Casa Grande, AZ (85193)

11:09 PM MST on July 29, 2015 (GMT -0700)
Az cty | | Change Station
CLOSE
Current Station
Personal Weather Station
Location: Arizona City, AZ
Elevation: 1493 ft
Nearby Weather Stations

Elev 1493 ft 32.74 °N, 111.68 °W | Updated 23 seconds ago

Clear
Clear
86.5 °F
Feels Like 88 °F
N
2.5
Wind Variable Wind from SSE
Gusts 2.5 mph

Today
High -- | Low -- °F
--% Chance of Precip.
Yesterday
High -- | Low -- °F
Precip. -- in
5:39 AM 7:28 PM
Waxing Gibbous, 98% visible
Pressure 29.99 in
Visibility 10.0 miles
Clouds Clear
Heat Index 88 °F
Dew Point 64 °F
Humidity 47%
Rainfall in
Snow Depth Not available.
UV 0.0 out of 12
Pollen 3.50 out of 12
Air Quality Not available.
Flu Activity Not available.
METAR KCGZ 300555Z AUTO 00000KT 10SM CLR 29/16 A2999 RMK AO1 10370 20290 52007

More Conditions Fewer Conditions

Pressure 29.99 in
Visibility 10.0 miles
Clouds Clear
Heat Index 88 °F
Dew Point 64 °F
Humidity 47%
Rainfall in
Snow Depth Not available.
UV 0.0 out of 12
Pollen 3.50 out of 12
Air Quality Not available.
Flu Activity Not available.
METAR KCGZ 300555Z AUTO 00000KT 10SM CLR 29/16 A2999 RMK AO1 10370 20290 52007

More Conditions Fewer Conditions

10-Day Weather Forecast

×

Almanac

Astronomy

Jul. 29, 2015 Rise Set
Actual Time
Civil Twilight
Nautical Twilight
Astronomical Twilight
Moon
Length of Visible Light
Length of Day
Tomorrow will be .
, % of the Moon is Illuminated

Today's Extremes

State Highs State Lows

Community

WunderPhotos

Upload Photos

1,842,312 photos uploaded!

WunderBlogs® & News

Nearby

Air Quality

  Air Quality AQ Index Pollutant
Not available.

Snow Depth

Station Depth Elevation

Earthquake Activity

City Distance Mag. Time & Date
Minimum magnitude displayed is 2.5.

Coastal Water Temperatures

Place Temperature

Stations

Nearby Weather Stations

Station Location Temp. Windchill Dew Point Humidity Wind Precip. Elev Updated Type
                   
Flood Watch / Flood Statement
Statement as of 9:21 PM MDT on July 29, 2015

... The small stream Flood Advisory has been cancelled for eastern
Maricopa... southern Gila and northeastern Pinal counties...

The heavy rain has ended... and flooding is no longer expected to
pose a threat. No reports of flooding in the advisory area have been
received.

Lat... Lon 3317 11105 3319 11122 3349 11128 3349 11106
      3325 11094


Cb